Time;durP1;ratioP1;P1;durP2;ratioP2;P2;SDS_P1;SDS_P2;PMS_P1;PMS_P2;Temp;Humidity;BMP_temperature;BMP_pressure;BME280_temperature;BME280_humidity;BME280_pressure;Samples;Min_cycle;Max_cycle;Signal;HPM_P1;HPM_P2
2021/08/15 12:24:11;;;;;;;0.10;0.10;;;;;;;25.22;38.79;98477.09;5073122;28;20731;-65
2021/08/15 12:26:58;;;;;;;0.10;0.10;;;;;;;25.13;38.88;98477.97;5076193;28;20059;-66
2021/08/15 12:29:27;;;;;;;0.00;0.00;;;;;;;25.04;39.15;98484.81;5074789;28;20486;-65
2021/08/15 12:32:12;;;;;;;0.10;0.10;;;;;;;24.91;39.40;98483.88;5066492;28;20031;-66
2021/08/15 12:34:56;;;;;;;0.15;0.15;;;;;;;24.78;39.20;98472.53;5069841;28;20495;-68
2021/08/15 12:37:24;;;;;;;;;;;;;;;24.68;39.63;98475.72;5059446;28;20028;-67
2021/08/15 12:40:09;;;;;;;0.10;0.10;;;;;;;24.61;39.48;98476.25;5079626;28;19920;-67
2021/08/15 12:42:36;;;;;;;0.43;0.32;;;;;;;24.58;39.63;98476.88;5077011;28;20047;-67
2021/08/15 12:45:07;;;;;;;0.20;0.20;;;;;;;24.61;39.31;98464.19;5075533;28;20047;-66
2021/08/15 12:47:41;;;;;;;0.22;0.20;;;;;;;24.69;39.34;98474.56;5061599;28;20402;-65
2021/08/15 12:50:16;;;;;;;0.10;0.10;;;;;;;24.78;38.77;98464.13;5082314;28;20456;-63
2021/08/15 12:52:53;;;;;;;0.17;0.17;;;;;;;24.87;38.94;98460.44;5068457;28;20089;-66
2021/08/15 12:55:38;;;;;;;0.30;0.30;;;;;;;24.93;38.76;98462.72;5069792;28;20130;-64
2021/08/15 12:58:08;;;;;;;0.75;0.50;;;;;;;24.95;38.63;98456.75;5075524;28;20039;-64
2021/08/15 13:00:39;;;;;;;0.80;0.10;;;;;;;24.89;38.89;98460.94;5053449;28;20039;-64
2021/08/15 13:03:08;;;;;;;0.10;0.10;;;;;;;24.81;38.78;98460.63;5082839;28;20067;-70
2021/08/15 13:05:37;;;;;;;0.00;0.00;;;;;;;24.75;38.93;98464.81;5061703;28;20040;-66
2021/08/15 13:08:03;;;;;;;1.08;0.95;;;;;;;24.71;39.08;98475.06;5081520;28;20076;-66
2021/08/15 13:10:30;;;;;;;0.10;0.10;;;;;;;24.71;38.59;98469.44;5082074;28;20060;-66
2021/08/15 13:12:57;;;;;;;0.22;0.22;;;;;;;24.65;38.69;98466.00;5072737;28;20998;-65
2021/08/15 13:15:23;;;;;;;0.20;0.20;;;;;;;24.60;39.09;98466.19;5070962;28;20046;-67
2021/08/15 13:17:49;;;;;;;0.57;0.30;;;;;;;24.54;39.11;98467.47;5070415;28;20151;-67
2021/08/15 13:20:23;;;;;;;0.30;0.30;;;;;;;24.47;39.32;98470.81;5071836;28;20045;-68
2021/08/15 13:22:49;;;;;;;0.20;0.20;;;;;;;24.42;39.05;98465.38;5077720;28;20052;-66
2021/08/15 13:25:15;;;;;;;0.10;0.10;;;;;;;24.40;39.02;98464.91;5066765;28;20777;-64
2021/08/15 13:27:42;;;;;;;0.10;0.10;;;;;;;24.37;38.68;98461.97;5081421;28;20036;-62
2021/08/15 13:30:09;;;;;;;0.20;0.20;;;;;;;24.34;39.02;98462.59;5073793;28;20043;-66
2021/08/15 13:32:36;;;;;;;0.28;0.28;;;;;;;24.26;39.51;98465.13;5074416;28;20113;-65
2021/08/15 13:35:02;;;;;;;0.43;0.43;;;;;;;24.21;39.36;98464.47;5079005;28;20044;-67
2021/08/15 13:37:29;;;;;;;0.10;0.10;;;;;;;24.17;39.37;98472.72;5078084;28;20044;-65
2021/08/15 13:40:03;;;;;;;0.10;0.10;;;;;;;24.14;39.68;98474.22;5076250;28;20513;-70
2021/08/15 13:42:31;;;;;;;0.10;0.10;;;;;;;24.14;39.70;98470.59;5072709;28;20037;-66
2021/08/15 13:44:58;;;;;;;0.20;0.10;;;;;;;24.13;39.31;98471.72;5078319;28;20036;-64
2021/08/15 13:47:26;;;;;;;0.15;0.15;;;;;;;24.09;39.43;98473.56;5072275;28;20069;-64
2021/08/15 13:49:52;;;;;;;0.10;0.10;;;;;;;24.06;39.38;98477.06;5058594;28;20044;-65
2021/08/15 13:52:18;;;;;;;0.10;0.10;;;;;;;24.00;39.73;98468.00;5078229;28;20447;-64
2021/08/15 13:54:44;;;;;;;0.22;0.22;;;;;;;23.95;39.97;98476.56;5072482;28;20040;-64
2021/08/15 13:57:11;;;;;;;0.30;0.30;;;;;;;23.89;39.62;98470.28;5072044;28;20086;-65
2021/08/15 13:59:38;;;;;;;0.10;0.10;;;;;;;23.85;39.98;98466.50;5076208;28;20076;-66
2021/08/15 14:02:05;;;;;;;0.40;0.40;;;;;;;23.79;39.92;98463.03;5074390;28;20076;-64
2021/08/15 14:04:34;;;;;;;0.40;0.35;;;;;;;23.75;39.94;98469.63;5084189;28;20047;-67
2021/08/15 14:07:01;;;;;;;0.28;0.15;;;;;;;23.72;39.96;98462.72;5072804;28;20066;-66
2021/08/15 14:09:28;;;;;;;0.17;0.17;;;;;;;23.68;40.40;98470.13;5072781;28;20534;-67
2021/08/15 14:11:54;;;;;;;0.10;0.10;;;;;;;23.62;40.41;98463.84;5070060;28;20087;-68
2021/08/15 14:14:19;;;;;;;0.15;0.15;;;;;;;23.61;40.29;98473.44;5070969;28;20048;-69
2021/08/15 14:16:46;;;;;;;0.20;0.20;;;;;;;23.61;40.32;98469.78;5094698;28;20167;-70
2021/08/15 14:19:12;;;;;;;0.13;0.10;;;;;;;23.55;40.59;98471.94;5092673;28;20046;-67
2021/08/15 14:21:38;;;;;;;0.40;0.40;;;;;;;23.53;40.40;98484.63;5101928;28;20052;-68
2021/08/15 14:24:04;;;;;;;0.47;0.30;;;;;;;23.48;40.65;98477.19;5088252;28;20049;-67
2021/08/15 14:26:29;;;;;;;0.40;0.40;;;;;;;23.44;40.77;98482.66;5075808;28;20020;-66
2021/08/15 14:28:55;;;;;;;0.20;0.20;;;;;;;23.40;40.98;98483.63;5071572;28;20016;-65
2021/08/15 14:31:21;;;;;;;0.10;0.10;;;;;;;23.34;40.93;98480.16;5067426;28;20021;-64
2021/08/15 14:33:47;;;;;;;0.50;0.50;;;;;;;23.31;41.00;98492.03;5068941;28;20045;-72
2021/08/15 14:36:15;;;;;;;0.10;0.10;;;;;;;23.24;41.48;98491.69;5049983;28;20596;-74
2021/08/15 14:38:40;;;;;;;1.13;0.20;;;;;;;23.16;41.52;98486.88;5059908;28;20500;-74
2021/08/15 14:41:06;;;;;;;0.30;0.30;;;;;;;23.07;41.51;98493.28;5065058;28;20041;-72
2021/08/15 14:43:35;;;;;;;0.20;0.20;;;;;;;22.99;41.69;98484.84;5043025;28;20033;-73
2021/08/15 14:46:02;;;;;;;0.17;0.15;;;;;;;22.97;41.89;98490.78;5062545;28;20281;-74
2021/08/15 14:48:29;;;;;;;0.32;0.32;;;;;;;23.04;41.51;98488.31;5048301;28;20044;-74
2021/08/15 14:50:55;;;;;;;0.20;0.20;;;;;;;22.98;41.48;98484.03;5062444;28;20056;-73
2021/08/15 14:53:20;;;;;;;0.10;0.10;;;;;;;22.88;42.16;98490.75;5063988;28;20122;-70
2021/08/15 14:55:46;;;;;;;1.55;1.27;;;;;;;22.75;41.94;98488.88;5046992;28;20463;-72
2021/08/15 14:58:12;;;;;;;0.20;0.20;;;;;;;22.62;42.17;98487.03;5059759;28;20044;-74
2021/08/15 15:00:40;;;;;;;0.85;0.52;;;;;;;22.53;42.43;98489.78;5063154;28;20036;-73
2021/08/15 15:03:09;;;;;;;0.70;0.50;;;;;;;22.44;42.50;98488.91;5046460;28;20079;-74
2021/08/15 15:05:37;;;;;;;0.17;0.17;;;;;;;22.36;42.89;98501.69;5064952;28;20530;-72
2021/08/15 15:08:03;;;;;;;0.30;0.30;;;;;;;22.30;42.83;98489.78;5049066;28;20075;-71
2021/08/15 15:10:29;;;;;;;0.20;0.20;;;;;;;22.21;43.08;98495.34;5045955;28;20095;-73
2021/08/15 15:12:56;;;;;;;0.28;0.13;;;;;;;22.11;42.98;98495.59;5052210;28;20454;-75
2021/08/15 15:15:21;;;;;;;0.30;0.30;;;;;;;21.98;43.31;98500.13;5065273;28;20079;-72
2021/08/15 15:17:48;;;;;;;0.32;0.32;;;;;;;21.87;43.74;98501.53;5062032;28;20074;-71
2021/08/15 15:20:19;;;;;;;2.05;0.43;;;;;;;21.74;43.81;98496.81;5059003;28;20052;-75
2021/08/15 15:22:47;;;;;;;1.30;0.65;;;;;;;21.61;44.21;98504.09;5061709;28;20519;-73
2021/08/15 15:25:14;;;;;;;1.38;1.27;;;;;;;21.46;44.38;98508.88;5056563;28;20036;-72
2021/08/15 15:27:40;;;;;;;2.08;0.40;;;;;;;21.32;44.63;98514.50;5033785;28;20403;-73
2021/08/15 15:30:07;;;;;;;0.10;0.10;;;;;;;21.16;44.46;98521.56;5046302;28;20521;-71
2021/08/15 15:32:36;;;;;;;0.47;0.30;;;;;;;21.02;44.84;98526.31;5050004;28;20128;-72
2021/08/15 15:35:02;;;;;;;1.08;0.20;;;;;;;20.84;44.99;98528.91;5062549;28;20077;-73
2021/08/15 15:37:28;;;;;;;0.30;0.30;;;;;;;20.70;45.49;98525.28;5053325;28;20068;-69
2021/08/15 15:39:55;;;;;;;0.10;0.10;;;;;;;20.56;45.85;98526.06;5052534;28;20660;-66
2021/08/15 15:42:20;;;;;;;0.45;0.45;;;;;;;20.42;46.12;98528.84;5044891;28;20110;-65
2021/08/15 15:44:47;;;;;;;0.32;0.32;;;;;;;20.29;46.28;98533.25;5056785;28;20588;-64
2021/08/15 15:47:14;;;;;;;1.42;1.33;;;;;;;20.19;46.46;98538.19;5040122;28;20389;-65
2021/08/15 15:49:42;;;;;;;0.30;0.30;;;;;;;20.09;46.46;98536.38;5054638;28;20043;-68
2021/08/15 15:52:08;;;;;;;0.70;0.70;;;;;;;19.95;46.80;98539.97;5037320;28;20403;-69
2021/08/15 15:54:34;;;;;;;0.35;0.20;;;;;;;19.90;46.98;98547.56;5057917;28;20041;-69
2021/08/15 15:57:00;;;;;;;0.30;0.30;;;;;;;19.81;47.05;98547.41;5054582;28;20033;-67
2021/08/15 15:59:29;;;;;;;0.30;0.30;;;;;;;19.74;47.18;98545.00;5032316;28;20041;-65
2021/08/15 16:02:12;;;;;;;1.30;0.55;;;;;;;19.67;47.33;98543.69;5054906;28;20518;-66
2021/08/15 16:04:38;;;;;;;0.40;0.40;;;;;;;19.59;47.46;98548.81;5040679;28;20055;-65
2021/08/15 16:07:07;;;;;;;0.20;0.20;;;;;;;19.53;47.55;98557.56;5044339;28;20078;-67
2021/08/15 16:09:33;;;;;;;1.10;0.43;;;;;;;19.43;47.71;98556.59;5053549;28;20124;-66
2021/08/15 16:11:59;;;;;;;0.55;0.55;;;;;;;19.36;47.94;98561.69;5051098;28;20063;-66
2021/08/15 16:14:25;;;;;;;0.47;0.20;;;;;;;19.29;47.94;98565.94;5048938;28;20045;-67
2021/08/15 16:16:50;;;;;;;0.20;0.20;;;;;;;19.22;48.02;98572.72;5055355;28;20103;-66
2021/08/15 16:19:19;;;;;;;0.20;0.20;;;;;;;19.13;48.23;98568.13;5053270;28;20147;-67
2021/08/15 16:21:45;;;;;;;0.28;0.28;;;;;;;19.05;48.44;98567.66;5036341;28;20079;-67
2021/08/15 16:24:10;;;;;;;0.20;0.20;;;;;;;18.99;48.62;98570.78;5071042;28;20044;-69
2021/08/15 16:26:36;;;;;;;0.32;0.32;;;;;;;18.96;48.85;98568.59;5072830;28;20063;-68
2021/08/15 16:29:03;;;;;;;0.30;0.30;;;;;;;18.93;48.84;98571.97;5071954;28;20036;-69
2021/08/15 16:31:29;;;;;;;0.40;0.40;;;;;;;18.90;48.99;98570.59;5071530;28;20082;-70
2021/08/15 16:33:54;;;;;;;0.20;0.20;;;;;;;18.85;48.93;98568.66;5054702;28;20499;-67
2021/08/15 16:36:20;;;;;;;0.20;0.20;;;;;;;18.80;49.24;98571.53;5060350;28;20036;-67
2021/08/15 16:38:46;;;;;;;0.20;0.20;;;;;;;18.76;49.17;98559.31;5070688;28;20032;-65
2021/08/15 16:41:11;;;;;;;0.25;0.25;;;;;;;18.73;49.39;98566.31;5072014;28;20032;-65
2021/08/15 16:43:37;;;;;;;0.15;0.15;;;;;;;18.70;49.49;98575.25;5068027;28;20072;-66
2021/08/15 16:46:04;;;;;;;1.35;0.43;;;;;;;18.65;49.63;98572.50;5072000;28;20683;-67
2021/08/15 16:49:09;;;;;;;0.10;0.10;;;;;;;18.61;49.70;98570.59;5070876;28;20044;-66
2021/08/15 16:54:58;;;;;;;0.32;0.32;;;;;;;18.44;49.97;98577.44;5066100;28;20048;-65
2021/08/15 16:57:23;;;;;;;0.15;0.15;;;;;;;18.42;50.19;98585.25;5072531;28;20033;-64
2021/08/15 16:59:50;;;;;;;0.17;0.17;;;;;;;18.37;50.21;98576.94;5071312;28;20465;-66
2021/08/15 17:02:16;;;;;;;0.20;0.20;;;;;;;18.33;50.51;98573.94;5069439;28;20450;-65
2021/08/15 17:05:21;;;;;;;0.30;0.30;;;;;;;18.30;50.51;98579.22;5072178;28;20437;-66
2021/08/15 17:07:47;;;;;;;0.25;0.25;;;;;;;18.20;50.72;98581.00;5068664;28;20045;-65
2021/08/15 17:10:13;;;;;;;0.10;0.10;;;;;;;18.14;50.96;98579.38;5076229;28;20077;-64
2021/08/15 17:12:39;;;;;;;0.10;0.10;;;;;;;18.11;51.15;98582.75;5071988;28;20037;-65
2021/08/15 17:15:05;;;;;;;0.20;0.20;;;;;;;18.06;51.16;98579.16;5071087;28;20059;-66
2021/08/15 17:17:42;;;;;;;0.30;0.30;;;;;;;17.99;51.21;98582.25;5078499;28;20450;-66
2021/08/15 17:20:12;;;;;;;0.40;0.40;;;;;;;17.93;51.52;98581.50;5077737;28;20556;-67
2021/08/15 17:22:38;;;;;;;0.20;0.20;;;;;;;17.85;51.93;98587.63;5078196;28;20105;-68
2021/08/15 17:25:05;;;;;;;0.20;0.20;;;;;;;17.80;51.86;98591.25;5079760;28;20070;-67
2021/08/15 17:27:31;;;;;;;0.40;0.20;;;;;;;17.75;52.03;98594.06;5077084;28;20467;-69
2021/08/15 17:29:57;;;;;;;0.20;0.20;;;;;;;17.71;52.28;98598.56;5061757;28;20422;-65
2021/08/15 17:32:23;;;;;;;0.45;0.30;;;;;;;17.67;52.31;98594.69;5077214;28;20183;-68
2021/08/15 17:34:50;;;;;;;0.45;0.17;;;;;;;17.62;52.55;98589.16;5059800;28;20040;-70
2021/08/15 17:37:16;;;;;;;0.20;0.20;;;;;;;17.58;52.76;98591.69;5080360;28;20039;-68
2021/08/15 17:39:42;;;;;;;0.20;0.20;;;;;;;17.54;52.73;98595.31;5080326;28;20105;-66
2021/08/15 17:42:12;;;;;;;0.17;0.17;;;;;;;17.49;52.88;98604.47;5096531;28;20119;-67
2021/08/15 17:44:39;;;;;;;0.30;0.30;;;;;;;17.48;52.99;98600.06;5087281;28;20054;-67
2021/08/15 17:47:05;;;;;;;0.73;0.73;;;;;;;17.44;53.17;98608.13;5067924;28;20048;-66
2021/08/15 17:49:31;;;;;;;0.10;0.10;;;;;;;17.39;53.30;98598.97;5083898;28;20093;-66
2021/08/15 17:51:56;;;;;;;0.20;0.20;;;;;;;17.32;53.66;98600.13;5080730;28;20036;-67
2021/08/15 17:54:22;;;;;;;0.20;0.20;;;;;;;17.28;53.58;98609.31;5083120;28;20059;-69
2021/08/15 17:56:48;;;;;;;0.20;0.20;;;;;;;17.23;53.82;98601.03;5091349;28;20072;-67
2021/08/15 17:59:13;;;;;;;0.25;0.25;;;;;;;17.15;54.00;98610.72;5089102;28;20574;-66
2021/08/15 18:01:39;;;;;;;0.55;0.40;;;;;;;17.12;53.97;98609.38;5083122;28;20079;-67
2021/08/15 18:04:05;;;;;;;0.32;0.32;;;;;;;17.05;54.23;98611.63;5093199;28;20036;-66
2021/08/15 18:06:31;;;;;;;0.85;0.85;;;;;;;17.01;54.70;98618.03;5092015;28;20039;-65
2021/08/15 18:08:58;;;;;;;0.15;0.15;;;;;;;16.96;54.61;98618.84;5081892;28;20098;-66
2021/08/15 18:11:25;;;;;;;0.10;0.10;;;;;;;16.91;54.56;98624.41;5089927;28;20490;-66
2021/08/15 18:13:52;;;;;;;0.28;0.28;;;;;;;16.87;54.86;98631.59;5080678;28;20135;-66
2021/08/15 18:16:18;;;;;;;2.72;0.22;;;;;;;16.81;54.99;98628.84;5077578;28;20060;-66
2021/08/15 18:18:43;;;;;;;0.10;0.10;;;;;;;16.76;55.25;98636.34;5091715;28;20036;-67
2021/08/15 18:21:09;;;;;;;0.10;0.10;;;;;;;16.70;55.37;98632.75;5090766;28;20032;-66
2021/08/15 18:23:38;;;;;;;0.60;0.38;;;;;;;16.64;55.51;98626.38;5092855;28;20059;-67
2021/08/15 18:26:05;;;;;;;0.20;0.20;;;;;;;16.59;55.81;98625.53;5089686;28;20048;-65
2021/08/15 18:28:31;;;;;;;0.10;0.10;;;;;;;16.55;55.68;98629.97;5091506;28;20065;-66
2021/08/15 18:30:57;;;;;;;0.55;0.55;;;;;;;16.50;55.86;98641.06;5092272;28;20131;-65
2021/08/15 18:33:23;;;;;;;0.10;0.10;;;;;;;16.43;55.96;98642.19;5073789;28;20044;-66
2021/08/15 18:35:48;;;;;;;0.20;0.20;;;;;;;16.39;55.97;98640.25;5072238;28;20040;-67
2021/08/15 18:38:15;;;;;;;0.30;0.30;;;;;;;16.36;56.32;98640.81;5080916;28;20519;-66
2021/08/15 18:40:41;;;;;;;0.20;0.20;;;;;;;16.34;56.35;98648.56;5088147;28;20041;-66
2021/08/15 18:43:06;;;;;;;0.28;0.28;;;;;;;16.31;56.28;98640.81;5074790;28;20065;-63
2021/08/15 18:45:32;;;;;;;0.30;0.30;;;;;;;16.27;56.44;98641.34;5074559;28;20576;-63
2021/08/15 18:47:58;;;;;;;0.30;0.30;;;;;;;16.23;56.51;98642.19;5074473;28;20051;-64
2021/08/15 18:50:24;;;;;;;0.52;0.52;;;;;;;16.20;56.67;98646.34;5074627;28;20120;-66
2021/08/15 18:52:50;;;;;;;0.38;0.38;;;;;;;16.16;56.75;98642.44;5074436;28;20486;-62
2021/08/15 18:55:16;;;;;;;0.20;0.20;;;;;;;16.15;56.81;98648.28;5073709;28;20047;-64
2021/08/15 18:57:45;;;;;;;0.50;0.50;;;;;;;16.11;57.14;98643.28;5074890;28;20102;-65
2021/08/15 19:00:13;;;;;;;0.13;0.13;;;;;;;16.12;57.07;98646.88;5074207;28;20491;-65
2021/08/15 19:02:39;;;;;;;0.20;0.20;;;;;;;16.11;57.15;98648.00;5074332;28;20037;-64
2021/08/15 19:05:07;;;;;;;0.10;0.10;;;;;;;16.12;57.26;98649.66;5073675;28;20110;-66
2021/08/15 19:07:34;;;;;;;0.50;0.50;;;;;;;16.11;57.27;98648.81;5072762;28;20037;-66
2021/08/15 19:10:00;;;;;;;0.20;0.20;;;;;;;16.10;57.39;98657.41;5094345;28;20036;-67
2021/08/15 19:12:26;;;;;;;0.10;0.10;;;;;;;16.09;57.38;98655.72;5093880;28;20524;-67
2021/08/15 19:14:52;;;;;;;0.43;0.43;;;;;;;16.07;57.36;98653.25;5094306;28;20036;-66
2021/08/15 19:17:18;;;;;;;0.10;0.10;;;;;;;16.05;57.70;98652.69;5094311;28;20121;-65
2021/08/15 19:19:44;;;;;;;0.20;0.20;;;;;;;16.05;57.51;98658.22;5094126;28;20117;-66
2021/08/15 19:22:13;;;;;;;0.43;0.43;;;;;;;16.01;57.81;98651.56;5094072;28;20040;-66
2021/08/15 19:24:40;;;;;;;0.10;0.10;;;;;;;15.97;57.91;98657.94;5076180;28;20052;-65
2021/08/15 19:27:08;;;;;;;0.10;0.10;;;;;;;15.95;57.88;98655.44;5093876;28;20040;-66
2021/08/15 19:29:36;;;;;;;0.50;0.50;;;;;;;15.93;58.24;98657.69;5094188;28;20465;-65
2021/08/15 19:32:03;;;;;;;0.20;0.20;;;;;;;15.89;58.10;98653.78;5093585;28;20078;-64
2021/08/15 19:34:30;;;;;;;0.22;0.22;;;;;;;15.89;58.50;98662.09;5093398;28;20036;-67
2021/08/15 19:36:56;;;;;;;0.10;0.10;;;;;;;15.87;58.46;98667.91;5093941;28;20057;-67
2021/08/15 19:39:26;;;;;;;0.30;0.30;;;;;;;15.84;58.40;98657.38;5094076;28;20086;-68
2021/08/15 19:41:53;;;;;;;0.20;0.20;;;;;;;15.81;58.58;98659.84;5098816;28;20036;-67
2021/08/15 19:44:19;;;;;;;0.30;0.30;;;;;;;15.78;58.98;98661.22;5102203;28;20052;-67
2021/08/15 19:46:45;;;;;;;0.20;0.20;;;;;;;15.74;58.79;98662.84;5075631;28;20040;-66
2021/08/15 19:49:11;;;;;;;0.35;0.35;;;;;;;15.72;58.91;98662.28;5093366;28;20050;-69
2021/08/15 19:51:37;;;;;;;0.13;0.13;;;;;;;15.73;59.01;98664.78;5093585;28;20047;-70
2021/08/15 19:54:03;;;;;;;0.30;0.20;;;;;;;15.74;58.94;98671.97;5093804;28;20044;-67
2021/08/15 19:56:30;;;;;;;0.10;0.10;;;;;;;15.74;58.99;98665.63;5093788;28;20535;-66
2021/08/15 19:58:56;;;;;;;0.38;0.38;;;;;;;15.73;59.07;98667.53;5093557;28;20410;-67
2021/08/15 20:01:21;;;;;;;0.10;0.10;;;;;;;15.74;59.20;98660.91;5093279;28;20044;-67
2021/08/15 20:03:47;;;;;;;0.20;0.20;;;;;;;15.75;59.19;98678.34;5093684;28;20044;-69
2021/08/15 20:06:16;;;;;;;0.13;0.13;;;;;;;15.74;59.17;98671.97;5092189;28;20040;-70
2021/08/15 20:08:42;;;;;;;0.43;0.43;;;;;;;15.72;59.32;98678.88;5075134;28;20498;-65
2021/08/15 20:11:08;;;;;;;0.13;0.13;;;;;;;15.70;59.32;98673.63;5093122;28;20101;-63
2021/08/15 20:13:33;;;;;;;0.10;0.10;;;;;;;15.67;59.57;98693.53;5093087;28;20082;-63
2021/08/15 20:16:00;;;;;;;0.10;0.10;;;;;;;15.66;59.42;98680.81;5092726;28;20514;-63
2021/08/15 20:18:27;;;;;;;0.10;0.10;;;;;;;15.64;59.64;98683.00;5093333;28;20036;-66
2021/08/15 20:20:56;;;;;;;0.28;0.28;;;;;;;15.63;59.73;98688.81;5093002;28;20052;-65
2021/08/15 20:23:21;;;;;;;1.88;0.52;;;;;;;15.59;59.86;98682.97;5092675;28;20063;-66
2021/08/15 20:25:48;;;;;;;0.30;0.30;;;;;;;15.56;60.07;98686.28;5092781;28;20058;-66
2021/08/15 20:28:15;;;;;;;0.20;0.20;;;;;;;15.51;60.21;98686.28;5093111;28;20456;-65
2021/08/15 20:30:42;;;;;;;0.80;0.75;;;;;;;15.47;60.45;98697.03;5092918;28;20115;-67
2021/08/15 20:33:08;;;;;;;0.10;0.10;;;;;;;15.43;60.53;98701.47;5092548;28;20040;-65
2021/08/15 20:35:38;;;;;;;0.20;0.20;;;;;;;15.39;60.53;98695.63;5091886;28;20507;-66
2021/08/15 20:38:05;;;;;;;0.20;0.20;;;;;;;15.35;60.81;98693.69;5093003;28;20490;-67
2021/08/15 20:40:33;;;;;;;0.22;0.22;;;;;;;15.33;61.07;98690.38;5092683;28;20113;-67
2021/08/15 20:43:02;;;;;;;0.13;0.13;;;;;;;15.29;61.05;98692.81;5092680;28;20465;-66
2021/08/15 20:45:30;;;;;;;0.20;0.20;;;;;;;15.27;60.91;98706.09;5092813;28;20044;-67
2021/08/15 20:47:59;;;;;;;0.55;0.55;;;;;;;15.26;61.00;98695.31;5092232;28;20032;-66
2021/08/15 20:50:27;;;;;;;0.20;0.20;;;;;;;15.24;61.21;98695.56;5093045;28;20106;-66
2021/08/15 20:52:52;;;;;;;0.17;0.17;;;;;;;15.27;61.08;98706.09;5092041;28;20039;-66
2021/08/15 20:55:18;;;;;;;0.25;0.25;;;;;;;15.26;60.95;98704.44;5092408;28;20051;-68
2021/08/15 20:57:44;;;;;;;0.43;0.32;;;;;;;15.24;61.23;98701.94;5092442;28;20407;-66
2021/08/15 21:00:11;;;;;;;0.40;0.40;;;;;;;15.20;61.56;98694.44;5092578;28;20177;-67
2021/08/15 21:02:37;;;;;;;0.30;0.30;;;;;;;15.16;61.53;98709.91;5073874;28;20050;-66
2021/08/15 21:05:03;;;;;;;0.20;0.20;;;;;;;15.12;61.48;98708.75;5073899;28;20051;-66
2021/08/15 21:07:28;;;;;;;0.10;0.10;;;;;;;15.10;61.63;98703.50;5074546;28;20124;-66
2021/08/15 21:09:55;;;;;;;0.10;0.10;;;;;;;15.08;61.86;98708.47;5092739;28;20404;-65
2021/08/15 21:12:21;;;;;;;0.30;0.30;;;;;;;15.05;61.75;98697.94;5092242;28;20040;-65
2021/08/15 21:14:46;;;;;;;0.55;0.20;;;;;;;15.02;61.94;98710.38;5092204;28;20040;-66
2021/08/15 21:17:12;;;;;;;0.63;0.43;;;;;;;15.01;62.15;98708.69;5092673;28;20548;-66
2021/08/15 21:19:38;;;;;;;0.10;0.10;;;;;;;14.98;62.08;98714.75;5096592;28;20040;-66
2021/08/15 21:22:05;;;;;;;0.20;0.20;;;;;;;14.95;62.31;98704.25;5096449;28;20123;-66
2021/08/15 21:24:33;;;;;;;0.25;0.25;;;;;;;14.94;62.35;98708.09;5096319;28;20506;-67
2021/08/15 21:27:00;;;;;;;0.17;0.17;;;;;;;14.91;62.42;98708.63;5096399;28;20043;-66
2021/08/15 21:29:26;;;;;;;1.55;0.95;;;;;;;14.89;62.39;98711.66;5096303;28;20508;-66
2021/08/15 21:31:52;;;;;;;0.13;0.13;;;;;;;14.89;62.26;98711.66;5096400;28;20028;-64
2021/08/15 21:34:18;;;;;;;0.10;0.10;;;;;;;14.90;62.54;98712.50;5095891;28;20051;-65
2021/08/15 21:36:44;;;;;;;0.10;0.10;;;;;;;14.90;62.59;98718.03;5096316;28;20524;-65
2021/08/15 21:39:09;;;;;;;0.17;0.17;;;;;;;14.93;62.68;98714.75;5096094;28;20036;-64
2021/08/15 21:41:35;;;;;;;3.08;0.55;;;;;;;14.93;62.63;98711.13;5096577;28;20074;-65
2021/08/15 21:44:02;;;;;;;0.30;0.30;;;;;;;14.91;62.68;98716.09;5096448;28;20044;-64
2021/08/15 21:46:30;;;;;;;0.20;0.20;;;;;;;14.89;62.55;98713.59;5097304;28;20066;-66
2021/08/15 21:48:56;;;;;;;0.20;0.20;;;;;;;14.86;62.80;98720.50;5112825;28;20085;-63
2021/08/15 21:51:22;;;;;;;0.40;0.40;;;;;;;14.84;63.05;98717.16;5098984;28;20039;-63
2021/08/15 21:53:47;;;;;;;0.98;0.60;;;;;;;14.84;62.80;98719.06;5095767;28;20051;-63
2021/08/15 21:56:13;;;;;;;0.30;0.30;;;;;;;14.80;63.13;98707.72;5095700;28;20043;-63
2021/08/15 21:58:39;;;;;;;0.30;0.30;;;;;;;14.80;63.04;98712.44;5095598;28;20498;-63
2021/08/15 22:01:05;;;;;;;0.20;0.20;;;;;;;14.78;63.29;98714.63;5095567;28;20044;-65
2021/08/15 22:03:30;;;;;;;0.22;0.22;;;;;;;14.77;63.28;98713.78;5095826;28;20036;-64
2021/08/15 22:05:58;;;;;;;0.30;0.30;;;;;;;14.76;63.26;98714.06;5095051;28;20070;-64
2021/08/15 22:08:24;;;;;;;0.20;0.20;;;;;;;14.74;63.40;98708.81;5095363;28;20525;-65
2021/08/15 22:10:49;;;;;;;0.40;0.40;;;;;;;14.73;63.56;98726.47;5095281;28;20044;-64
2021/08/15 22:13:15;;;;;;;0.35;0.35;;;;;;;14.73;63.40;98714.59;5095784;28;20134;-64
2021/08/15 22:15:41;;;;;;;0.20;0.20;;;;;;;14.73;63.63;98722.88;5095214;28;20039;-64
2021/08/15 22:18:07;;;;;;;0.25;0.25;;;;;;;14.75;63.87;98712.38;5095584;28;20130;-63
2021/08/15 22:20:34;;;;;;;0.20;0.20;;;;;;;14.76;63.63;98722.34;5095394;28;20032;-64
2021/08/15 22:22:59;;;;;;;0.28;0.25;;;;;;;14.76;63.64;98714.88;5094998;28;20129;-65
2021/08/15 22:25:26;;;;;;;0.73;0.73;;;;;;;14.74;63.94;98719.84;5095270;28;20048;-65
2021/08/15 22:27:52;;;;;;;0.40;0.40;;;;;;;14.73;63.98;98709.06;5095051;28;20522;-64
2021/08/15 22:30:19;;;;;;;0.10;0.10;;;;;;;14.71;63.80;98710.16;5094429;28;20047;-64
2021/08/15 22:32:47;;;;;;;0.85;0.40;;;;;;;14.70;64.04;98710.41;5095445;28;20036;-63
2021/08/15 22:35:14;;;;;;;0.20;0.20;;;;;;;14.69;64.03;98715.13;5094229;28;20529;-64
2021/08/15 22:37:41;;;;;;;1.00;0.40;;;;;;;14.67;64.20;98711.78;5094907;28;20082;-64
2021/08/15 22:40:08;;;;;;;0.50;0.50;;;;;;;14.65;64.33;98711.22;5095043;28;20036;-65
2021/08/15 22:42:34;;;;;;;0.20;0.20;;;;;;;14.62;64.09;98716.41;5094928;28;20398;-64
2021/08/15 22:44:59;;;;;;;0.25;0.25;;;;;;;14.57;64.45;98713.59;5094961;28;20055;-64
2021/08/15 22:47:25;;;;;;;0.20;0.20;;;;;;;14.53;64.73;98713.28;5094936;28;20089;-64
2021/08/15 22:49:51;;;;;;;0.15;0.15;;;;;;;14.50;64.52;98708.28;5095058;28;20410;-65
2021/08/15 22:52:17;;;;;;;0.20;0.20;;;;;;;14.48;64.76;98718.78;5094447;28;20043;-65
2021/08/15 22:54:42;;;;;;;0.28;0.20;;;;;;;14.45;64.76;98716.53;5094924;28;20081;-65
2021/08/15 22:57:08;;;;;;;0.10;0.10;;;;;;;14.44;64.79;98710.19;5094353;28;20040;-63
2021/08/15 22:59:34;;;;;;;0.20;0.20;;;;;;;14.45;64.98;98708.25;5094669;28;20046;-63
2021/08/15 23:02:02;;;;;;;0.40;0.40;;;;;;;14.46;65.04;98718.22;5076721;28;20043;-63
2021/08/15 23:04:28;;;;;;;0.20;0.20;;;;;;;14.46;64.80;98707.16;5093836;28;20044;-64
2021/08/15 23:06:55;;;;;;;0.70;0.28;;;;;;;14.47;65.10;98714.34;5094203;28;20044;-63
2021/08/15 23:09:21;;;;;;;0.32;0.28;;;;;;;14.46;64.97;98713.50;5076271;28;20070;-64
2021/08/15 23:11:47;;;;;;;0.20;0.20;;;;;;;14.46;64.91;98716.28;5094170;28;20082;-64
2021/08/15 23:14:13;;;;;;;0.20;0.20;;;;;;;14.46;65.33;98724.56;5094564;28;20553;-64
2021/08/15 23:16:38;;;;;;;0.43;0.43;;;;;;;14.46;65.19;98718.22;5094307;28;20059;-64
2021/08/15 23:19:04;;;;;;;0.55;0.25;;;;;;;14.46;65.36;98718.22;5094204;28;20048;-64
2021/08/15 23:21:30;;;;;;;0.10;0.10;;;;;;;14.45;65.29;98711.00;5093888;28;20494;-64
2021/08/15 23:23:56;;;;;;;1.95;0.75;;;;;;;14.45;65.39;98714.59;5093686;28;20105;-63
2021/08/15 23:26:22;;;;;;;0.30;0.30;;;;;;;14.45;65.37;98711.00;5093773;28;20513;-64
2021/08/15 23:28:49;;;;;;;0.25;0.25;;;;;;;14.45;65.25;98711.00;5075877;28;20044;-64
2021/08/15 23:31:15;;;;;;;0.45;0.45;;;;;;;14.44;65.62;98720.38;5093709;28;20536;-63
2021/08/15 23:33:40;;;;;;;0.40;0.40;;;;;;;14.44;65.45;98714.88;5093849;28;20044;-63
2021/08/15 23:36:06;;;;;;;2.85;0.65;;;;;;;14.43;65.61;98721.47;5093030;28;20047;-63
2021/08/15 23:38:32;;;;;;;0.25;0.25;;;;;;;14.41;65.55;98715.38;5093886;28;20477;-63
2021/08/15 23:40:58;;;;;;;0.40;0.40;;;;;;;14.39;65.73;98712.88;5093668;28;20040;-63
2021/08/15 23:43:23;;;;;;;0.10;0.10;;;;;;;14.40;65.66;98714.56;5094097;28;20551;-64
2021/08/15 23:45:49;;;;;;;0.20;0.20;;;;;;;14.39;65.66;98717.59;5093780;28;20043;-64
2021/08/15 23:48:15;;;;;;;0.47;0.47;;;;;;;14.37;65.72;98726.16;5094597;28;20047;-64
2021/08/15 23:50:40;;;;;;;0.80;0.52;;;;;;;14.30;65.78;98723.56;5094052;28;20055;-64
2021/08/15 23:53:06;;;;;;;0.30;0.30;;;;;;;14.23;66.08;98725.72;5097969;28;20044;-64
2021/08/15 23:55:32;;;;;;;2.13;0.50;;;;;;;14.15;66.31;98726.22;5107620;28;20185;-64
2021/08/15 23:57:58;;;;;;;2.83;0.20;;;;;;;14.11;66.59;98725.06;5094461;28;20044;-65
